sensor_id;sensor_type;location;lat;lon;timestamp;P1;durP1;ratioP1;P2;durP2;ratioP2
19113;SDS011;9689;51.052;13.772;2022-10-24T00:00:17;30.08;;;17.20;;
19113;SDS011;9689;51.052;13.772;2022-10-24T00:05:18;29.67;;;18.15;;
19113;SDS011;9689;51.052;13.772;2022-10-24T00:10:20;33.53;;;17.45;;
19113;SDS011;9689;51.052;13.772;2022-10-24T00:15:21;28.25;;;17.10;;
19113;SDS011;9689;51.052;13.772;2022-10-24T00:20:22;27.70;;;17.88;;
19113;SDS011;9689;51.052;13.772;2022-10-24T00:25:25;32.20;;;18.17;;
19113;SDS011;9689;51.052;13.772;2022-10-24T00:30:25;26.05;;;16.27;;
19113;SDS011;9689;51.052;13.772;2022-10-24T00:35:27;31.65;;;17.33;;
19113;SDS011;9689;51.052;13.772;2022-10-24T00:40:29;30.30;;;18.27;;
19113;SDS011;9689;51.052;13.772;2022-10-24T00:45:38;30.00;;;16.95;;
19113;SDS011;9689;51.052;13.772;2022-10-24T00:50:41;25.83;;;14.95;;
19113;SDS011;9689;51.052;13.772;2022-10-24T00:55:46;33.78;;;17.35;;
19113;SDS011;9689;51.052;13.772;2022-10-24T01:00:49;24.98;;;15.38;;
19113;SDS011;9689;51.052;13.772;2022-10-24T01:05:58;26.77;;;15.63;;
19113;SDS011;9689;51.052;13.772;2022-10-24T01:11:11;24.58;;;13.68;;
19113;SDS011;9689;51.052;13.772;2022-10-24T01:16:26;25.25;;;14.57;;
19113;SDS011;9689;51.052;13.772;2022-10-24T01:21:34;26.50;;;13.18;;
19113;SDS011;9689;51.052;13.772;2022-10-24T01:26:42;21.75;;;12.98;;
19113;SDS011;9689;51.052;13.772;2022-10-24T01:32:10;26.70;;;14.00;;
19113;SDS011;9689;51.052;13.772;2022-10-24T01:37:17;22.90;;;12.45;;
19113;SDS011;9689;51.052;13.772;2022-10-24T01:42:21;25.63;;;13.82;;
19113;SDS011;9689;51.052;13.772;2022-10-24T01:47:26;28.88;;;13.68;;
19113;SDS011;9689;51.052;13.772;2022-10-24T01:52:33;23.83;;;13.90;;
19113;SDS011;9689;51.052;13.772;2022-10-24T01:57:38;21.60;;;13.70;;
19113;SDS011;9689;51.052;13.772;2022-10-24T02:02:42;29.85;;;14.05;;
19113;SDS011;9689;51.052;13.772;2022-10-24T02:07:47;25.73;;;14.73;;
19113;SDS011;9689;51.052;13.772;2022-10-24T02:12:53;24.83;;;14.38;;
19113;SDS011;9689;51.052;13.772;2022-10-24T02:18:00;23.00;;;14.10;;
19113;SDS011;9689;51.052;13.772;2022-10-24T02:23:03;25.88;;;15.48;;
19113;SDS011;9689;51.052;13.772;2022-10-24T02:28:08;24.98;;;14.93;;
19113;SDS011;9689;51.052;13.772;2022-10-24T02:33:13;28.75;;;13.90;;
19113;SDS011;9689;51.052;13.772;2022-10-24T02:38:16;24.98;;;13.98;;
19113;SDS011;9689;51.052;13.772;2022-10-24T02:43:22;25.40;;;14.15;;
19113;SDS011;9689;51.052;13.772;2022-10-24T02:48:26;26.20;;;14.27;;
19113;SDS011;9689;51.052;13.772;2022-10-24T02:53:29;27.05;;;14.95;;
19113;SDS011;9689;51.052;13.772;2022-10-24T02:58:30;29.95;;;14.50;;
19113;SDS011;9689;51.052;13.772;2022-10-24T03:03:33;31.27;;;14.98;;
19113;SDS011;9689;51.052;13.772;2022-10-24T03:08:33;31.77;;;15.05;;
19113;SDS011;9689;51.052;13.772;2022-10-24T03:13:34;34.00;;;15.43;;
19113;SDS011;9689;51.052;13.772;2022-10-24T03:18:37;30.70;;;15.35;;
19113;SDS011;9689;51.052;13.772;2022-10-24T03:23:37;32.35;;;15.05;;
19113;SDS011;9689;51.052;13.772;2022-10-24T03:28:38;34.25;;;16.23;;
19113;SDS011;9689;51.052;13.772;2022-10-24T03:33:40;33.58;;;15.65;;
19113;SDS011;9689;51.052;13.772;2022-10-24T03:38:41;30.25;;;14.50;;
19113;SDS011;9689;51.052;13.772;2022-10-24T03:43:42;33.03;;;16.25;;
19113;SDS011;9689;51.052;13.772;2022-10-24T03:48:44;27.73;;;15.02;;
19113;SDS011;9689;51.052;13.772;2022-10-24T03:53:45;32.58;;;15.98;;
19113;SDS011;9689;51.052;13.772;2022-10-24T03:58:46;35.95;;;18.17;;
19113;SDS011;9689;51.052;13.772;2022-10-24T04:03:48;32.83;;;17.92;;
19113;SDS011;9689;51.052;13.772;2022-10-24T04:08:49;32.85;;;16.17;;
19113;SDS011;9689;51.052;13.772;2022-10-24T04:13:50;28.15;;;15.57;;
19113;SDS011;9689;51.052;13.772;2022-10-24T04:18:53;30.23;;;16.35;;
19113;SDS011;9689;51.052;13.772;2022-10-24T04:23:53;30.90;;;16.10;;
19113;SDS011;9689;51.052;13.772;2022-10-24T04:28:54;26.02;;;14.43;;
19113;SDS011;9689;51.052;13.772;2022-10-24T04:33:57;23.83;;;14.30;;
19113;SDS011;9689;51.052;13.772;2022-10-24T04:38:57;29.25;;;14.98;;
19113;SDS011;9689;51.052;13.772;2022-10-24T04:44:03;28.23;;;14.73;;
19113;SDS011;9689;51.052;13.772;2022-10-24T04:49:06;28.42;;;14.50;;
19113;SDS011;9689;51.052;13.772;2022-10-24T04:54:08;21.27;;;13.25;;
19113;SDS011;9689;51.052;13.772;2022-10-24T04:59:09;23.50;;;13.68;;
19113;SDS011;9689;51.052;13.772;2022-10-24T05:04:11;29.52;;;13.68;;
19113;SDS011;9689;51.052;13.772;2022-10-24T05:09:12;25.45;;;13.70;;
19113;SDS011;9689;51.052;13.772;2022-10-24T05:14:13;27.60;;;13.63;;
19113;SDS011;9689;51.052;13.772;2022-10-24T05:19:15;22.73;;;12.00;;
19113;SDS011;9689;51.052;13.772;2022-10-24T05:24:16;21.52;;;12.05;;
19113;SDS011;9689;51.052;13.772;2022-10-24T05:29:17;24.58;;;12.18;;
19113;SDS011;9689;51.052;13.772;2022-10-24T05:34:19;20.65;;;11.82;;
19113;SDS011;9689;51.052;13.772;2022-10-24T05:39:20;21.83;;;10.55;;
19113;SDS011;9689;51.052;13.772;2022-10-24T05:44:21;22.05;;;10.45;;
19113;SDS011;9689;51.052;13.772;2022-10-24T05:49:23;18.42;;;10.48;;
19113;SDS011;9689;51.052;13.772;2022-10-24T05:54:24;22.42;;;10.75;;
19113;SDS011;9689;51.052;13.772;2022-10-24T05:59:40;18.80;;;11.00;;
19113;SDS011;9689;51.052;13.772;2022-10-24T06:04:43;21.73;;;10.10;;
19113;SDS011;9689;51.052;13.772;2022-10-24T06:09:44;24.98;;;11.35;;
19113;SDS011;9689;51.052;13.772;2022-10-24T06:14:45;17.80;;;10.18;;
19113;SDS011;9689;51.052;13.772;2022-10-24T06:19:47;23.33;;;10.85;;
19113;SDS011;9689;51.052;13.772;2022-10-24T06:24:49;22.15;;;10.82;;
19113;SDS011;9689;51.052;13.772;2022-10-24T06:29:50;17.42;;;9.75;;
19113;SDS011;9689;51.052;13.772;2022-10-24T06:34:52;19.33;;;9.05;;
19113;SDS011;9689;51.052;13.772;2022-10-24T06:39:53;16.13;;;8.68;;
19113;SDS011;9689;51.052;13.772;2022-10-24T06:44:54;20.10;;;8.38;;
19113;SDS011;9689;51.052;13.772;2022-10-24T06:49:56;16.92;;;8.63;;
19113;SDS011;9689;51.052;13.772;2022-10-24T06:54:57;21.67;;;8.73;;
19113;SDS011;9689;51.052;13.772;2022-10-24T06:59:59;19.40;;;7.97;;
19113;SDS011;9689;51.052;13.772;2022-10-24T07:05:01;15.95;;;8.07;;
19113;SDS011;9689;51.052;13.772;2022-10-24T07:10:03;13.18;;;7.80;;
19113;SDS011;9689;51.052;13.772;2022-10-24T07:15:05;19.30;;;7.88;;
19113;SDS011;9689;51.052;13.772;2022-10-24T07:20:08;15.93;;;7.32;;
19113;SDS011;9689;51.052;13.772;2022-10-24T07:25:11;13.48;;;7.28;;
19113;SDS011;9689;51.052;13.772;2022-10-24T07:30:14;14.13;;;7.13;;
19113;SDS011;9689;51.052;13.772;2022-10-24T07:35:18;16.85;;;7.22;;
19113;SDS011;9689;51.052;13.772;2022-10-24T07:40:19;19.15;;;8.10;;
19113;SDS011;9689;51.052;13.772;2022-10-24T07:45:20;16.48;;;7.90;;
19113;SDS011;9689;51.052;13.772;2022-10-24T07:50:22;18.42;;;7.53;;
19113;SDS011;9689;51.052;13.772;2022-10-24T07:55:23;15.95;;;7.68;;
19113;SDS011;9689;51.052;13.772;2022-10-24T08:00:24;16.50;;;6.75;;
19113;SDS011;9689;51.052;13.772;2022-10-24T08:05:26;13.73;;;6.78;;
19113;SDS011;9689;51.052;13.772;2022-10-24T08:10:27;12.85;;;6.43;;
19113;SDS011;9689;51.052;13.772;2022-10-24T08:15:28;16.42;;;6.63;;
19113;SDS011;9689;51.052;13.772;2022-10-24T08:20:31;17.02;;;7.05;;
19113;SDS011;9689;51.052;13.772;2022-10-24T08:25:32;11.40;;;6.35;;
19113;SDS011;9689;51.052;13.772;2022-10-24T08:30:33;12.70;;;6.88;;
19113;SDS011;9689;51.052;13.772;2022-10-24T08:35:35;10.90;;;6.43;;
19113;SDS011;9689;51.052;13.772;2022-10-24T08:40:36;13.32;;;6.50;;
19113;SDS011;9689;51.052;13.772;2022-10-24T08:45:40;12.95;;;6.55;;
19113;SDS011;9689;51.052;13.772;2022-10-24T08:50:50;10.90;;;6.45;;
19113;SDS011;9689;51.052;13.772;2022-10-24T08:55:58;12.35;;;6.57;;
19113;SDS011;9689;51.052;13.772;2022-10-24T09:01:01;14.25;;;6.20;;
19113;SDS011;9689;51.052;13.772;2022-10-24T09:06:06;12.52;;;5.88;;
19113;SDS011;9689;51.052;13.772;2022-10-24T09:11:15;9.75;;;5.60;;
19113;SDS011;9689;51.052;13.772;2022-10-24T09:16:22;17.17;;;6.25;;
19113;SDS011;9689;51.052;13.772;2022-10-24T09:21:25;15.88;;;6.25;;
19113;SDS011;9689;51.052;13.772;2022-10-24T09:26:26;13.93;;;5.53;;
19113;SDS011;9689;51.052;13.772;2022-10-24T09:31:30;12.20;;;5.30;;
19113;SDS011;9689;51.052;13.772;2022-10-24T09:36:32;9.30;;;5.15;;
19113;SDS011;9689;51.052;13.772;2022-10-24T09:41:33;12.55;;;5.50;;
19113;SDS011;9689;51.052;13.772;2022-10-24T09:46:34;15.93;;;5.25;;
19113;SDS011;9689;51.052;13.772;2022-10-24T09:51:40;12.57;;;6.00;;
19113;SDS011;9689;51.052;13.772;2022-10-24T09:56:44;14.10;;;5.93;;
19113;SDS011;9689;51.052;13.772;2022-10-24T10:01:53;13.07;;;5.55;;
19113;SDS011;9689;51.052;13.772;2022-10-24T10:07:24;15.00;;;5.30;;
19113;SDS011;9689;51.052;13.772;2022-10-24T10:12:27;14.45;;;5.32;;
19113;SDS011;9689;51.052;13.772;2022-10-24T10:17:33;8.27;;;4.53;;
19113;SDS011;9689;51.052;13.772;2022-10-24T10:22:35;11.40;;;4.65;;
19113;SDS011;9689;51.052;13.772;2022-10-24T10:27:37;12.90;;;4.90;;
19113;SDS011;9689;51.052;13.772;2022-10-24T10:32:41;11.10;;;4.97;;
19113;SDS011;9689;51.052;13.772;2022-10-24T10:37:49;8.50;;;4.57;;
19113;SDS011;9689;51.052;13.772;2022-10-24T10:42:56;10.10;;;4.50;;
19113;SDS011;9689;51.052;13.772;2022-10-24T10:53:40;10.18;;;4.20;;
19113;SDS011;9689;51.052;13.772;2022-10-24T10:58:49;18.45;;;4.63;;
19113;SDS011;9689;51.052;13.772;2022-10-24T11:03:58;8.63;;;4.07;;
19113;SDS011;9689;51.052;13.772;2022-10-24T11:14:30;9.43;;;3.47;;
19113;SDS011;9689;51.052;13.772;2022-10-24T11:19:38;8.23;;;3.88;;
19113;SDS011;9689;51.052;13.772;2022-10-24T11:24:46;9.02;;;3.35;;
19113;SDS011;9689;51.052;13.772;2022-10-24T11:29:53;13.63;;;2.85;;
19113;SDS011;9689;51.052;13.772;2022-10-24T11:34:57;10.20;;;2.83;;
19113;SDS011;9689;51.052;13.772;2022-10-24T11:40:04;12.68;;;2.58;;
19113;SDS011;9689;51.052;13.772;2022-10-24T11:45:11;6.95;;;2.08;;
19113;SDS011;9689;51.052;13.772;2022-10-24T11:50:16;9.30;;;2.75;;
19113;SDS011;9689;51.052;13.772;2022-10-24T11:55:27;7.65;;;2.55;;
19113;SDS011;9689;51.052;13.772;2022-10-24T12:00:47;11.63;;;2.63;;
19113;SDS011;9689;51.052;13.772;2022-10-24T12:06:37;13.95;;;2.58;;
19113;SDS011;9689;51.052;13.772;2022-10-24T12:11:54;10.77;;;2.53;;
19113;SDS011;9689;51.052;13.772;2022-10-24T12:17:15;5.53;;;2.10;;
19113;SDS011;9689;51.052;13.772;2022-10-24T12:22:32;8.88;;;2.22;;
19113;SDS011;9689;51.052;13.772;2022-10-24T12:27:37;11.48;;;1.58;;
19113;SDS011;9689;51.052;13.772;2022-10-24T12:32:40;7.25;;;2.13;;
19113;SDS011;9689;51.052;13.772;2022-10-24T12:37:43;9.52;;;2.08;;
19113;SDS011;9689;51.052;13.772;2022-10-24T12:48:31;5.57;;;2.03;;
19113;SDS011;9689;51.052;13.772;2022-10-24T12:53:35;6.65;;;1.83;;
19113;SDS011;9689;51.052;13.772;2022-10-24T12:58:39;7.85;;;1.80;;
19113;SDS011;9689;51.052;13.772;2022-10-24T13:03:46;3.83;;;1.42;;
19113;SDS011;9689;51.052;13.772;2022-10-24T13:09:12;9.30;;;2.08;;
19113;SDS011;9689;51.052;13.772;2022-10-24T13:14:28;5.65;;;1.88;;
19113;SDS011;9689;51.052;13.772;2022-10-24T13:19:38;7.70;;;3.28;;
19113;SDS011;9689;51.052;13.772;2022-10-24T13:24:39;3.33;;;1.40;;
19113;SDS011;9689;51.052;13.772;2022-10-24T13:30:02;2.10;;;0.98;;
19113;SDS011;9689;51.052;13.772;2022-10-24T13:35:23;2.53;;;1.13;;
19113;SDS011;9689;51.052;13.772;2022-10-24T13:40:26;5.47;;;1.48;;
19113;SDS011;9689;51.052;13.772;2022-10-24T13:45:31;3.78;;;1.30;;
19113;SDS011;9689;51.052;13.772;2022-10-24T13:50:40;3.08;;;1.85;;
19113;SDS011;9689;51.052;13.772;2022-10-24T13:55:50;4.50;;;1.50;;
19113;SDS011;9689;51.052;13.772;2022-10-24T14:00:54;4.82;;;1.40;;
19113;SDS011;9689;51.052;13.772;2022-10-24T14:05:58;3.95;;;1.30;;
19113;SDS011;9689;51.052;13.772;2022-10-24T14:11:02;1.58;;;1.05;;
19113;SDS011;9689;51.052;13.772;2022-10-24T14:16:06;3.28;;;1.42;;
19113;SDS011;9689;51.052;13.772;2022-10-24T14:21:14;4.85;;;1.17;;
19113;SDS011;9689;51.052;13.772;2022-10-24T14:26:18;4.30;;;1.00;;
19113;SDS011;9689;51.052;13.772;2022-10-24T14:31:22;1.52;;;0.73;;
19113;SDS011;9689;51.052;13.772;2022-10-24T14:36:26;4.07;;;1.20;;
19113;SDS011;9689;51.052;13.772;2022-10-24T14:41:31;3.28;;;1.27;;
19113;SDS011;9689;51.052;13.772;2022-10-24T14:46:35;5.40;;;1.42;;
19113;SDS011;9689;51.052;13.772;2022-10-24T14:51:37;4.97;;;1.20;;
19113;SDS011;9689;51.052;13.772;2022-10-24T14:56:40;3.20;;;1.27;;
19113;SDS011;9689;51.052;13.772;2022-10-24T15:01:49;4.60;;;1.27;;
19113;SDS011;9689;51.052;13.772;2022-10-24T15:06:54;4.53;;;1.35;;
19113;SDS011;9689;51.052;13.772;2022-10-24T15:11:59;5.03;;;1.40;;
19113;SDS011;9689;51.052;13.772;2022-10-24T15:17:03;8.27;;;1.50;;
19113;SDS011;9689;51.052;13.772;2022-10-24T15:22:32;1.75;;;0.93;;
19113;SDS011;9689;51.052;13.772;2022-10-24T15:27:37;2.03;;;1.10;;
19113;SDS011;9689;51.052;13.772;2022-10-24T15:32:40;3.75;;;1.00;;
19113;SDS011;9689;51.052;13.772;2022-10-24T15:37:52;3.58;;;1.27;;
19113;SDS011;9689;51.052;13.772;2022-10-24T15:42:53;3.45;;;1.20;;
19113;SDS011;9689;51.052;13.772;2022-10-24T15:47:55;4.03;;;1.30;;
19113;SDS011;9689;51.052;13.772;2022-10-24T15:52:58;2.10;;;1.30;;
19113;SDS011;9689;51.052;13.772;2022-10-24T15:58:01;3.83;;;1.27;;
19113;SDS011;9689;51.052;13.772;2022-10-24T16:03:02;3.25;;;1.35;;
19113;SDS011;9689;51.052;13.772;2022-10-24T16:08:05;5.75;;;1.48;;
19113;SDS011;9689;51.052;13.772;2022-10-24T16:13:12;4.10;;;1.20;;
19113;SDS011;9689;51.052;13.772;2022-10-24T16:18:14;3.90;;;1.55;;
19113;SDS011;9689;51.052;13.772;2022-10-24T16:23:17;4.22;;;1.00;;
19113;SDS011;9689;51.052;13.772;2022-10-24T16:28:18;4.65;;;1.52;;
19113;SDS011;9689;51.052;13.772;2022-10-24T16:33:22;2.88;;;1.65;;
19113;SDS011;9689;51.052;13.772;2022-10-24T16:38:24;2.85;;;1.30;;
19113;SDS011;9689;51.052;13.772;2022-10-24T16:43:25;3.17;;;1.40;;
19113;SDS011;9689;51.052;13.772;2022-10-24T16:48:26;1.88;;;1.13;;
19113;SDS011;9689;51.052;13.772;2022-10-24T16:53:28;2.20;;;1.05;;
19113;SDS011;9689;51.052;13.772;2022-10-24T16:58:29;4.13;;;1.17;;
19113;SDS011;9689;51.052;13.772;2022-10-24T17:03:31;3.33;;;1.35;;
19113;SDS011;9689;51.052;13.772;2022-10-24T17:08:34;6.75;;;1.50;;
19113;SDS011;9689;51.052;13.772;2022-10-24T17:13:35;3.92;;;1.70;;
19113;SDS011;9689;51.052;13.772;2022-10-24T17:18:36;4.57;;;1.92;;
19113;SDS011;9689;51.052;13.772;2022-10-24T17:23:39;6.60;;;1.60;;
19113;SDS011;9689;51.052;13.772;2022-10-24T17:28:40;4.70;;;1.75;;
19113;SDS011;9689;51.052;13.772;2022-10-24T17:33:43;3.42;;;1.55;;
19113;SDS011;9689;51.052;13.772;2022-10-24T17:38:46;3.42;;;1.73;;
19113;SDS011;9689;51.052;13.772;2022-10-24T17:43:54;4.80;;;2.55;;
19113;SDS011;9689;51.052;13.772;2022-10-24T17:48:55;5.95;;;1.65;;
19113;SDS011;9689;51.052;13.772;2022-10-24T17:53:57;4.70;;;1.98;;
19113;SDS011;9689;51.052;13.772;2022-10-24T17:58:58;6.13;;;2.22;;
19113;SDS011;9689;51.052;13.772;2022-10-24T18:03:59;5.47;;;2.90;;
19113;SDS011;9689;51.052;13.772;2022-10-24T18:09:02;9.35;;;2.78;;
19113;SDS011;9689;51.052;13.772;2022-10-24T18:14:03;5.82;;;2.50;;
19113;SDS011;9689;51.052;13.772;2022-10-24T18:19:04;5.82;;;2.80;;
19113;SDS011;9689;51.052;13.772;2022-10-24T18:24:07;19.65;;;4.22;;
19113;SDS011;9689;51.052;13.772;2022-10-24T18:29:08;7.60;;;3.55;;
19113;SDS011;9689;51.052;13.772;2022-10-24T18:34:09;10.70;;;3.63;;
19113;SDS011;9689;51.052;13.772;2022-10-24T18:39:12;11.30;;;3.30;;
19113;SDS011;9689;51.052;13.772;2022-10-24T18:44:19;5.40;;;3.17;;
19113;SDS011;9689;51.052;13.772;2022-10-24T18:49:24;6.53;;;3.25;;
19113;SDS011;9689;51.052;13.772;2022-10-24T18:54:26;9.40;;;4.00;;
19113;SDS011;9689;51.052;13.772;2022-10-24T18:59:29;8.45;;;3.75;;
19113;SDS011;9689;51.052;13.772;2022-10-24T19:04:30;6.25;;;3.33;;
19113;SDS011;9689;51.052;13.772;2022-10-24T19:09:35;7.72;;;3.20;;
19113;SDS011;9689;51.052;13.772;2022-10-24T19:14:36;6.90;;;3.15;;
19113;SDS011;9689;51.052;13.772;2022-10-24T19:19:37;6.82;;;3.28;;
19113;SDS011;9689;51.052;13.772;2022-10-24T19:24:40;8.07;;;3.58;;
19113;SDS011;9689;51.052;13.772;2022-10-24T19:29:41;14.52;;;3.83;;
19113;SDS011;9689;51.052;13.772;2022-10-24T19:34:42;11.32;;;3.38;;
19113;SDS011;9689;51.052;13.772;2022-10-24T19:39:44;7.95;;;3.75;;
19113;SDS011;9689;51.052;13.772;2022-10-24T19:44:45;6.50;;;3.72;;
19113;SDS011;9689;51.052;13.772;2022-10-24T19:49:53;9.73;;;3.38;;
19113;SDS011;9689;51.052;13.772;2022-10-24T19:54:55;5.05;;;3.08;;
19113;SDS011;9689;51.052;13.772;2022-10-24T19:59:56;6.43;;;2.78;;
19113;SDS011;9689;51.052;13.772;2022-10-24T20:04:57;9.88;;;3.83;;
19113;SDS011;9689;51.052;13.772;2022-10-24T20:10:00;8.82;;;3.72;;
19113;SDS011;9689;51.052;13.772;2022-10-24T20:15:01;9.98;;;3.88;;
19113;SDS011;9689;51.052;13.772;2022-10-24T20:20:01;4.70;;;3.50;;
19113;SDS011;9689;51.052;13.772;2022-10-24T20:25:04;11.45;;;3.88;;
19113;SDS011;9689;51.052;13.772;2022-10-24T20:30:07;7.28;;;3.83;;
19113;SDS011;9689;51.052;13.772;2022-10-24T20:35:09;7.85;;;3.58;;
19113;SDS011;9689;51.052;13.772;2022-10-24T20:40:11;9.68;;;4.35;;
19113;SDS011;9689;51.052;13.772;2022-10-24T20:45:12;12.00;;;4.20;;
19113;SDS011;9689;51.052;13.772;2022-10-24T20:50:17;10.93;;;4.75;;
19113;SDS011;9689;51.052;13.772;2022-10-24T20:55:19;9.55;;;3.83;;
19113;SDS011;9689;51.052;13.772;2022-10-24T21:00:40;5.88;;;3.80;;
19113;SDS011;9689;51.052;13.772;2022-10-24T21:05:41;8.93;;;4.68;;
19113;SDS011;9689;51.052;13.772;2022-10-24T21:10:43;12.00;;;5.20;;
19113;SDS011;9689;51.052;13.772;2022-10-24T21:15:44;10.38;;;4.38;;
19113;SDS011;9689;51.052;13.772;2022-10-24T21:20:45;7.75;;;4.32;;
19113;SDS011;9689;51.052;13.772;2022-10-24T21:25:47;7.22;;;4.00;;
19113;SDS011;9689;51.052;13.772;2022-10-24T21:30:48;5.50;;;3.70;;
19113;SDS011;9689;51.052;13.772;2022-10-24T21:35:49;8.10;;;4.93;;
19113;SDS011;9689;51.052;13.772;2022-10-24T21:40:59;13.32;;;4.38;;
19113;SDS011;9689;51.052;13.772;2022-10-24T21:46:01;9.45;;;4.40;;
19113;SDS011;9689;51.052;13.772;2022-10-24T21:51:04;7.78;;;3.92;;
19113;SDS011;9689;51.052;13.772;2022-10-24T21:56:09;11.73;;;4.05;;
19113;SDS011;9689;51.052;13.772;2022-10-24T22:01:11;13.52;;;4.85;;
19113;SDS011;9689;51.052;13.772;2022-10-24T22:06:14;7.03;;;3.75;;
19113;SDS011;9689;51.052;13.772;2022-10-24T22:11:18;12.35;;;4.85;;
19113;SDS011;9689;51.052;13.772;2022-10-24T22:16:20;7.95;;;4.15;;
19113;SDS011;9689;51.052;13.772;2022-10-24T22:21:23;11.52;;;4.43;;
19113;SDS011;9689;51.052;13.772;2022-10-24T22:26:27;10.18;;;3.80;;
19113;SDS011;9689;51.052;13.772;2022-10-24T22:31:28;9.98;;;4.30;;
19113;SDS011;9689;51.052;13.772;2022-10-24T22:36:37;7.68;;;4.20;;
19113;SDS011;9689;51.052;13.772;2022-10-24T22:41:47;6.90;;;4.13;;
19113;SDS011;9689;51.052;13.772;2022-10-24T22:47:08;7.07;;;4.10;;
19113;SDS011;9689;51.052;13.772;2022-10-24T22:52:21;9.77;;;4.00;;
19113;SDS011;9689;51.052;13.772;2022-10-24T22:57:24;12.38;;;4.15;;
19113;SDS011;9689;51.052;13.772;2022-10-24T23:02:27;10.50;;;3.63;;
19113;SDS011;9689;51.052;13.772;2022-10-24T23:07:34;5.07;;;3.58;;
19113;SDS011;9689;51.052;13.772;2022-10-24T23:12:45;12.82;;;3.80;;
19113;SDS011;9689;51.052;13.772;2022-10-24T23:17:47;6.55;;;3.33;;
19113;SDS011;9689;51.052;13.772;2022-10-24T23:22:49;12.05;;;3.90;;
19113;SDS011;9689;51.052;13.772;2022-10-24T23:28:10;10.50;;;4.07;;
19113;SDS011;9689;51.052;13.772;2022-10-24T23:33:20;15.07;;;5.05;;
19113;SDS011;9689;51.052;13.772;2022-10-24T23:38:25;7.53;;;3.30;;
19113;SDS011;9689;51.052;13.772;2022-10-24T23:43:28;8.70;;;3.78;;
19113;SDS011;9689;51.052;13.772;2022-10-24T23:48:34;9.32;;;3.75;;
19113;SDS011;9689;51.052;13.772;2022-10-24T23:53:48;9.20;;;4.35;;
19113;SDS011;9689;51.052;13.772;2022-10-24T23:58:53;7.03;;;3.85;;
